sensor_id;sensor_type;location;lat;lon;timestamp;pressure;altitude;pressure_sealevel;temperature;humidity
9676;BME280;4876;42.656;23.292;2022-10-10T00:01:54;95087.34;;;12.93;94.26
9676;BME280;4876;42.656;23.292;2022-10-10T00:04:21;95080.31;;;12.88;95.36
9676;BME280;4876;42.656;23.292;2022-10-10T00:06:49;95086.56;;;12.92;95.34
9676;BME280;4876;42.656;23.292;2022-10-10T00:09:16;95090.88;;;12.88;95.83
9676;BME280;4876;42.656;23.292;2022-10-10T00:11:43;95088.72;;;12.90;94.83
9676;BME280;4876;42.656;23.292;2022-10-10T00:14:10;95097.41;;;12.91;92.35
9676;BME280;4876;42.656;23.292;2022-10-10T00:16:36;95088.56;;;12.87;92.63
9676;BME280;4876;42.656;23.292;2022-10-10T00:19:03;95090.25;;;12.91;93.56
9676;BME280;4876;42.656;23.292;2022-10-10T00:21:30;95092.56;;;12.84;93.28
9676;BME280;4876;42.656;23.292;2022-10-10T00:23:58;95087.03;;;12.94;92.37
9676;BME280;4876;42.656;23.292;2022-10-10T00:26:25;95090.63;;;12.99;90.90
9676;BME280;4876;42.656;23.292;2022-10-10T00:28:52;95083.44;;;12.90;91.17
9676;BME280;4876;42.656;23.292;2022-10-10T00:31:19;95085.28;;;12.81;92.46
9676;BME280;4876;42.656;23.292;2022-10-10T00:33:46;95086.19;;;12.85;92.79
9676;BME280;4876;42.656;23.292;2022-10-10T00:36:13;95082.50;;;12.86;92.69
9676;BME280;4876;42.656;23.292;2022-10-10T00:38:40;95084.00;;;12.79;92.90
9676;BME280;4876;42.656;23.292;2022-10-10T00:41:08;95089.47;;;12.82;92.87
9676;BME280;4876;42.656;23.292;2022-10-10T00:43:35;95090.41;;;12.86;92.79
9676;BME280;4876;42.656;23.292;2022-10-10T00:46:02;95085.78;;;12.92;92.04
9676;BME280;4876;42.656;23.292;2022-10-10T00:48:30;95082.28;;;12.74;92.37
9676;BME280;4876;42.656;23.292;2022-10-10T00:51:01;95082.56;;;12.73;93.01
9676;BME280;4876;42.656;23.292;2022-10-10T00:53:31;95081.22;;;12.84;92.46
9676;BME280;4876;42.656;23.292;2022-10-10T00:56:00;95086.06;;;12.90;90.77
9676;BME280;4876;42.656;23.292;2022-10-10T00:58:30;95086.63;;;12.79;91.64
9676;BME280;4876;42.656;23.292;2022-10-10T01:00:57;95083.19;;;12.70;92.58
9676;BME280;4876;42.656;23.292;2022-10-10T01:03:24;95092.53;;;12.76;91.65
9676;BME280;4876;42.656;23.292;2022-10-10T01:05:50;95089.25;;;12.70;92.43
9676;BME280;4876;42.656;23.292;2022-10-10T01:08:18;95092.06;;;12.43;92.63
9676;BME280;4876;42.656;23.292;2022-10-10T01:11:04;95079.78;;;12.38;93.80
9676;BME280;4876;42.656;23.292;2022-10-10T01:13:45;95089.00;;;12.49;93.86
9676;BME280;4876;42.656;23.292;2022-10-10T01:16:20;95095.19;;;12.45;93.78
9676;BME280;4876;42.656;23.292;2022-10-10T01:18:55;95091.53;;;12.32;93.82
9676;BME280;4876;42.656;23.292;2022-10-10T01:21:27;95098.59;;;12.23;94.48
9676;BME280;4876;42.656;23.292;2022-10-10T01:24:16;95081.88;;;12.27;93.83
9676;BME280;4876;42.656;23.292;2022-10-10T01:27:06;95093.13;;;12.42;94.49
9676;BME280;4876;42.656;23.292;2022-10-10T01:29:41;95085.75;;;12.52;93.97
9676;BME280;4876;42.656;23.292;2022-10-10T01:32:10;95094.78;;;12.60;93.42
9676;BME280;4876;42.656;23.292;2022-10-10T01:34:47;95098.06;;;12.65;92.78
9676;BME280;4876;42.656;23.292;2022-10-10T01:37:18;95101.66;;;12.61;91.13
9676;BME280;4876;42.656;23.292;2022-10-10T01:39:51;95096.19;;;12.57;91.78
9676;BME280;4876;42.656;23.292;2022-10-10T01:42:24;95087.81;;;12.55;92.33
9676;BME280;4876;42.656;23.292;2022-10-10T01:44:54;95092.31;;;12.55;93.07
9676;BME280;4876;42.656;23.292;2022-10-10T01:47:22;95085.94;;;12.56;92.69
9676;BME280;4876;42.656;23.292;2022-10-10T01:49:51;94983.22;;;11.97;91.95
9676;BME280;4876;42.656;23.292;2022-10-10T01:52:28;95085.94;;;12.56;91.00
9676;BME280;4876;42.656;23.292;2022-10-10T01:55:08;95076.25;;;12.43;91.33
9676;BME280;4876;42.656;23.292;2022-10-10T01:57:43;95086.84;;;12.51;91.51
9676;BME280;4876;42.656;23.292;2022-10-10T02:00:17;95081.38;;;12.48;91.18
9676;BME280;4876;42.656;23.292;2022-10-10T02:02:51;94995.41;;;11.84;91.33
9676;BME280;4876;42.656;23.292;2022-10-10T02:05:24;95094.78;;;12.60;92.00
9676;BME280;4876;42.656;23.292;2022-10-10T02:07:56;95099.34;;;12.68;91.35
9676;BME280;4876;42.656;23.292;2022-10-10T02:10:28;95097.56;;;12.55;90.40
9676;BME280;4876;42.656;23.292;2022-10-10T02:12:58;95096.84;;;12.40;89.82
9676;BME280;4876;42.656;23.292;2022-10-10T02:15:30;95094.97;;;12.32;91.73
9676;BME280;4876;42.656;23.292;2022-10-10T02:17:59;95101.19;;;12.36;92.70
9676;BME280;4876;42.656;23.292;2022-10-10T02:20:29;95097.84;;;12.22;92.90
9676;BME280;4876;42.656;23.292;2022-10-10T02:22:56;95108.50;;;12.17;93.91
9676;BME280;4876;42.656;23.292;2022-10-10T02:25:27;95091.72;;;12.13;94.60
9676;BME280;4876;42.656;23.292;2022-10-10T02:28:01;95103.00;;;12.27;94.98
9676;BME280;4876;42.656;23.292;2022-10-10T02:30:35;95102.09;;;12.32;94.66
9676;BME280;4876;42.656;23.292;2022-10-10T02:33:04;95102.41;;;12.08;94.88
9676;BME280;4876;42.656;23.292;2022-10-10T02:35:35;95102.81;;;12.24;93.41
9676;BME280;4876;42.656;23.292;2022-10-10T02:38:05;95095.97;;;12.23;92.07
9676;BME280;4876;42.656;23.292;2022-10-10T02:40:34;95105.09;;;12.17;92.28
9676;BME280;4876;42.656;23.292;2022-10-10T02:43:04;95099.34;;;12.15;93.62
9676;BME280;4876;42.656;23.292;2022-10-10T02:45:34;95110.66;;;12.15;94.29
9676;BME280;4876;42.656;23.292;2022-10-10T02:48:00;95104.41;;;12.11;94.58
9676;BME280;4876;42.656;23.292;2022-10-10T02:50:29;95106.69;;;12.04;95.40
9676;BME280;4876;42.656;23.292;2022-10-10T02:52:56;95101.44;;;12.04;97.41
9676;BME280;4876;42.656;23.292;2022-10-10T02:55:23;95107.47;;;12.04;97.83
9676;BME280;4876;42.656;23.292;2022-10-10T02:57:50;95101.16;;;12.05;97.87
9676;BME280;4876;42.656;23.292;2022-10-10T03:00:17;95108.13;;;12.10;97.57
9676;BME280;4876;42.656;23.292;2022-10-10T03:02:46;95104.91;;;12.13;96.71
9676;BME280;4876;42.656;23.292;2022-10-10T03:05:13;95115.34;;;12.18;96.09
9676;BME280;4876;42.656;23.292;2022-10-10T03:07:40;95110.06;;;12.18;95.17
9676;BME280;4876;42.656;23.292;2022-10-10T03:10:07;95107.28;;;12.23;94.60
9676;BME280;4876;42.656;23.292;2022-10-10T03:12:34;95105.03;;;12.30;94.02
9676;BME280;4876;42.656;23.292;2022-10-10T03:15:02;95105.97;;;12.34;92.77
9676;BME280;4876;42.656;23.292;2022-10-10T03:17:29;95109.22;;;12.31;93.02
9676;BME280;4876;42.656;23.292;2022-10-10T03:19:57;95111.97;;;12.26;93.44
9676;BME280;4876;42.656;23.292;2022-10-10T03:22:23;95108.88;;;12.24;93.85
9676;BME280;4876;42.656;23.292;2022-10-10T03:24:50;95114.16;;;12.24;93.64
9676;BME280;4876;42.656;23.292;2022-10-10T03:27:17;95115.88;;;12.29;92.71
9676;BME280;4876;42.656;23.292;2022-10-10T03:29:44;95122.06;;;12.24;92.24
9676;BME280;4876;42.656;23.292;2022-10-10T03:32:10;95111.22;;;12.26;92.09
9676;BME280;4876;42.656;23.292;2022-10-10T03:34:37;95116.91;;;12.19;92.96
9676;BME280;4876;42.656;23.292;2022-10-10T03:37:05;95116.59;;;12.21;92.76
9676;BME280;4876;42.656;23.292;2022-10-10T03:39:32;95123.72;;;12.20;93.04
9676;BME280;4876;42.656;23.292;2022-10-10T03:41:59;95122.53;;;12.26;92.74
9676;BME280;4876;42.656;23.292;2022-10-10T03:44:25;95121.75;;;12.26;91.75
9676;BME280;4876;42.656;23.292;2022-10-10T03:46:52;95123.84;;;12.15;92.51
9676;BME280;4876;42.656;23.292;2022-10-10T03:49:19;95118.22;;;12.08;93.85
9676;BME280;4876;42.656;23.292;2022-10-10T03:51:46;95125.25;;;12.12;93.81
9676;BME280;4876;42.656;23.292;2022-10-10T03:54:14;95121.81;;;12.12;93.37
9676;BME280;4876;42.656;23.292;2022-10-10T03:56:41;95119.19;;;12.12;93.25
9676;BME280;4876;42.656;23.292;2022-10-10T03:59:08;95117.78;;;12.15;92.84
9676;BME280;4876;42.656;23.292;2022-10-10T04:01:34;95124.31;;;12.17;92.71
9676;BME280;4876;42.656;23.292;2022-10-10T04:04:01;95121.97;;;12.16;91.91
9676;BME280;4876;42.656;23.292;2022-10-10T04:06:29;95123.06;;;12.15;92.52
9676;BME280;4876;42.656;23.292;2022-10-10T04:08:56;95118.81;;;12.05;92.79
9676;BME280;4876;42.656;23.292;2022-10-10T04:11:24;95120.06;;;12.07;92.63
9676;BME280;4876;42.656;23.292;2022-10-10T04:13:51;95124.09;;;12.05;91.95
9676;BME280;4876;42.656;23.292;2022-10-10T04:16:17;95125.56;;;11.97;91.90
9676;BME280;4876;42.656;23.292;2022-10-10T04:18:44;95126.19;;;11.94;92.31
9676;BME280;4876;42.656;23.292;2022-10-10T04:21:11;95130.69;;;11.94;91.42
9676;BME280;4876;42.656;23.292;2022-10-10T04:23:37;95135.16;;;11.79;93.13
9676;BME280;4876;42.656;23.292;2022-10-10T04:26:06;95132.44;;;11.84;91.87
9676;BME280;4876;42.656;23.292;2022-10-10T04:28:34;95129.88;;;11.79;92.97
9676;BME280;4876;42.656;23.292;2022-10-10T04:31:01;95126.78;;;11.77;93.08
9676;BME280;4876;42.656;23.292;2022-10-10T04:33:27;95126.41;;;11.84;92.58
9676;BME280;4876;42.656;23.292;2022-10-10T04:35:54;95122.69;;;11.71;93.37
9676;BME280;4876;42.656;23.292;2022-10-10T04:38:21;95128.44;;;11.73;94.35
9676;BME280;4876;42.656;23.292;2022-10-10T04:40:48;95117.06;;;11.64;94.75
9676;BME280;4876;42.656;23.292;2022-10-10T04:43:15;95124.25;;;11.72;94.34
9676;BME280;4876;42.656;23.292;2022-10-10T04:45:43;95127.50;;;11.69;96.00
9676;BME280;4876;42.656;23.292;2022-10-10T04:48:10;95130.41;;;11.81;97.09
9676;BME280;4876;42.656;23.292;2022-10-10T04:50:37;95132.00;;;12.05;95.40
9676;BME280;4876;42.656;23.292;2022-10-10T04:53:04;95130.56;;;12.21;92.51
9676;BME280;4876;42.656;23.292;2022-10-10T04:55:31;95118.69;;;12.32;93.87
9676;BME280;4876;42.656;23.292;2022-10-10T04:57:58;95140.81;;;12.76;92.93
9676;BME280;4876;42.656;23.292;2022-10-10T05:00:25;95144.22;;;13.08;91.12
9676;BME280;4876;42.656;23.292;2022-10-10T05:02:53;95147.47;;;13.36;88.78
9676;BME280;4876;42.656;23.292;2022-10-10T05:05:20;95138.50;;;13.63;85.52
9676;BME280;4876;42.656;23.292;2022-10-10T05:07:47;95138.53;;;13.80;83.94
9676;BME280;4876;42.656;23.292;2022-10-10T05:10:13;95145.22;;;13.95;81.81
9676;BME280;4876;42.656;23.292;2022-10-10T05:12:40;95133.72;;;13.99;81.10
9676;BME280;4876;42.656;23.292;2022-10-10T05:15:07;95141.50;;;14.05;80.73
9676;BME280;4876;42.656;23.292;2022-10-10T05:17:34;95149.13;;;14.06;81.01
9676;BME280;4876;42.656;23.292;2022-10-10T05:20:03;95153.94;;;14.13;78.80
9676;BME280;4876;42.656;23.292;2022-10-10T05:22:30;95146.78;;;14.05;79.43
9676;BME280;4876;42.656;23.292;2022-10-10T05:24:57;95158.75;;;14.02;80.40
9676;BME280;4876;42.656;23.292;2022-10-10T05:27:24;95151.91;;;13.84;81.50
9676;BME280;4876;42.656;23.292;2022-10-10T05:29:51;95152.03;;;13.70;81.85
9676;BME280;4876;42.656;23.292;2022-10-10T05:32:21;95161.22;;;13.81;82.13
9676;BME280;4876;42.656;23.292;2022-10-10T05:34:48;95142.41;;;13.74;82.03
9676;BME280;4876;42.656;23.292;2022-10-10T05:37:16;95171.66;;;14.04;80.73
9676;BME280;4876;42.656;23.292;2022-10-10T05:39:43;95167.78;;;14.01;79.79
9676;BME280;4876;42.656;23.292;2022-10-10T05:42:10;95134.78;;;13.64;80.06
9676;BME280;4876;42.656;23.292;2022-10-10T05:44:38;95178.63;;;13.65;80.43
9676;BME280;4876;42.656;23.292;2022-10-10T05:47:05;95167.84;;;13.35;81.97
9676;BME280;4876;42.656;23.292;2022-10-10T05:49:32;95171.06;;;13.32;82.93
9676;BME280;4876;42.656;23.292;2022-10-10T05:51:59;95167.13;;;13.21;84.01
9676;BME280;4876;42.656;23.292;2022-10-10T05:54:27;95182.81;;;13.17;85.16
9676;BME280;4876;42.656;23.292;2022-10-10T05:56:54;95185.06;;;13.02;85.97
9676;BME280;4876;42.656;23.292;2022-10-10T05:59:23;95168.41;;;12.92;86.79
9676;BME280;4876;42.656;23.292;2022-10-10T06:01:50;95086.56;;;12.30;87.50
9676;BME280;4876;42.656;23.292;2022-10-10T06:04:17;95196.47;;;12.88;88.34
9676;BME280;4876;42.656;23.292;2022-10-10T06:06:44;95167.00;;;12.42;90.52
9676;BME280;4876;42.656;23.292;2022-10-10T06:09:11;95188.72;;;12.38;94.77
9676;BME280;4876;42.656;23.292;2022-10-10T06:11:39;95190.81;;;12.50;93.28
9676;BME280;4876;42.656;23.292;2022-10-10T06:14:06;95199.59;;;12.90;91.63
9676;BME280;4876;42.656;23.292;2022-10-10T06:16:33;95203.16;;;13.17;89.67
9676;BME280;4876;42.656;23.292;2022-10-10T06:19:01;95199.66;;;12.99;89.69
9676;BME280;4876;42.656;23.292;2022-10-10T06:21:28;95197.34;;;12.53;96.26
9676;BME280;4876;42.656;23.292;2022-10-10T06:23:55;95199.66;;;12.99;93.87
9676;BME280;4876;42.656;23.292;2022-10-10T06:26:22;95198.38;;;12.97;93.14
9676;BME280;4876;42.656;23.292;2022-10-10T06:28:50;95206.75;;;13.21;89.40
9676;BME280;4876;42.656;23.292;2022-10-10T06:31:17;95208.44;;;13.17;89.38
9676;BME280;4876;42.656;23.292;2022-10-10T06:33:44;95198.13;;;13.29;87.35
9676;BME280;4876;42.656;23.292;2022-10-10T06:36:13;95213.09;;;13.51;87.21
9676;BME280;4876;42.656;23.292;2022-10-10T06:38:41;95209.25;;;13.66;84.52
9676;BME280;4876;42.656;23.292;2022-10-10T06:41:09;95212.84;;;13.79;84.56
9676;BME280;4876;42.656;23.292;2022-10-10T06:43:36;95216.88;;;13.67;86.76
9676;BME280;4876;42.656;23.292;2022-10-10T06:46:04;95218.13;;;13.79;85.13
9676;BME280;4876;42.656;23.292;2022-10-10T06:48:32;95218.75;;;13.76;83.57
9676;BME280;4876;42.656;23.292;2022-10-10T06:51:01;95222.97;;;13.77;84.45
9676;BME280;4876;42.656;23.292;2022-10-10T06:53:28;95213.94;;;13.69;84.37
9676;BME280;4876;42.656;23.292;2022-10-10T06:55:55;95224.69;;;13.81;84.08
9676;BME280;4876;42.656;23.292;2022-10-10T06:58:23;95209.91;;;13.80;85.47
9676;BME280;4876;42.656;23.292;2022-10-10T07:00:51;95226.13;;;14.05;84.08
9676;BME280;4876;42.656;23.292;2022-10-10T07:03:19;95220.38;;;14.11;83.65
9676;BME280;4876;42.656;23.292;2022-10-10T07:05:51;95223.63;;;13.99;83.19
9676;BME280;4876;42.656;23.292;2022-10-10T07:08:18;95221.47;;;14.01;83.13
9676;BME280;4876;42.656;23.292;2022-10-10T07:10:45;95228.47;;;13.97;84.17
9676;BME280;4876;42.656;23.292;2022-10-10T07:13:12;95228.94;;;13.99;83.25
9676;BME280;4876;42.656;23.292;2022-10-10T07:15:40;95221.63;;;14.05;84.00
9676;BME280;4876;42.656;23.292;2022-10-10T07:18:07;95204.66;;;13.97;83.77
9676;BME280;4876;42.656;23.292;2022-10-10T07:20:35;95216.44;;;13.74;85.23
9676;BME280;4876;42.656;23.292;2022-10-10T07:23:03;95207.44;;;14.10;83.52
9676;BME280;4876;42.656;23.292;2022-10-10T07:25:30;95205.91;;;14.26;82.54
9676;BME280;4876;42.656;23.292;2022-10-10T07:27:57;95219.00;;;14.31;83.42
9676;BME280;4876;42.656;23.292;2022-10-10T07:30:24;95211.69;;;14.45;82.47
9676;BME280;4876;42.656;23.292;2022-10-10T07:32:52;95224.00;;;14.59;80.97
9676;BME280;4876;42.656;23.292;2022-10-10T07:35:19;95214.84;;;14.47;81.22
9676;BME280;4876;42.656;23.292;2022-10-10T07:37:52;95213.56;;;14.71;80.71
9676;BME280;4876;42.656;23.292;2022-10-10T07:40:19;95217.28;;;14.87;79.70
9676;BME280;4876;42.656;23.292;2022-10-10T07:42:46;95210.13;;;14.79;79.22
9676;BME280;4876;42.656;23.292;2022-10-10T07:45:13;95213.81;;;14.95;79.33
9676;BME280;4876;42.656;23.292;2022-10-10T07:47:40;95201.84;;;14.89;79.10
9676;BME280;4876;42.656;23.292;2022-10-10T07:50:09;95200.88;;;15.02;80.02
9676;BME280;4876;42.656;23.292;2022-10-10T07:52:37;95198.34;;;15.15;78.74
9676;BME280;4876;42.656;23.292;2022-10-10T07:55:06;95202.13;;;15.05;78.95
9676;BME280;4876;42.656;23.292;2022-10-10T07:57:34;95182.69;;;14.92;78.84
9676;BME280;4876;42.656;23.292;2022-10-10T08:00:02;95194.97;;;14.97;79.86
9676;BME280;4876;42.656;23.292;2022-10-10T08:02:29;95192.19;;;14.93;81.30
9676;BME280;4876;42.656;23.292;2022-10-10T08:04:56;95194.56;;;15.24;77.73
9676;BME280;4876;42.656;23.292;2022-10-10T08:07:23;95198.28;;;15.32;75.98
9676;BME280;4876;42.656;23.292;2022-10-10T08:09:49;95196.38;;;15.41;74.86
9676;BME280;4876;42.656;23.292;2022-10-10T08:12:18;95193.59;;;15.38;75.22
9676;BME280;4876;42.656;23.292;2022-10-10T08:14:44;95190.41;;;15.53;74.52
9676;BME280;4876;42.656;23.292;2022-10-10T08:17:11;95193.31;;;15.69;75.19
9676;BME280;4876;42.656;23.292;2022-10-10T08:19:40;95194.06;;;15.78;73.86
9676;BME280;4876;42.656;23.292;2022-10-10T08:22:09;95191.75;;;15.97;73.92
9676;BME280;4876;42.656;23.292;2022-10-10T08:24:36;95197.13;;;16.09;72.59
9676;BME280;4876;42.656;23.292;2022-10-10T08:27:03;95192.78;;;16.26;71.80
9676;BME280;4876;42.656;23.292;2022-10-10T08:29:32;95186.81;;;16.08;73.40
9676;BME280;4876;42.656;23.292;2022-10-10T08:31:58;95202.50;;;16.22;73.88
9676;BME280;4876;42.656;23.292;2022-10-10T08:34:25;95183.47;;;16.40;73.43
9676;BME280;4876;42.656;23.292;2022-10-10T08:36:52;95190.75;;;16.43;73.16
9676;BME280;4876;42.656;23.292;2022-10-10T08:39:19;95196.91;;;16.56;71.65
9676;BME280;4876;42.656;23.292;2022-10-10T08:41:48;95200.06;;;16.71;71.69
9676;BME280;4876;42.656;23.292;2022-10-10T08:44:20;95206.38;;;16.99;70.71
9676;BME280;4876;42.656;23.292;2022-10-10T08:46:52;95202.22;;;17.22;69.67
9676;BME280;4876;42.656;23.292;2022-10-10T08:49:23;95197.13;;;17.42;68.65
9676;BME280;4876;42.656;23.292;2022-10-10T08:51:58;95203.56;;;17.53;68.64
9676;BME280;4876;42.656;23.292;2022-10-10T08:54:27;95201.59;;;17.74;68.81
9676;BME280;4876;42.656;23.292;2022-10-10T08:56:58;95204.94;;;17.71;65.45
9676;BME280;4876;42.656;23.292;2022-10-10T08:59:28;95212.66;;;18.01;63.91
9676;BME280;4876;42.656;23.292;2022-10-10T09:02:13;95220.41;;;18.18;63.52
9676;BME280;4876;42.656;23.292;2022-10-10T09:04:44;95216.56;;;17.91;63.64
9676;BME280;4876;42.656;23.292;2022-10-10T09:07:18;95212.88;;;17.59;62.62
9676;BME280;4876;42.656;23.292;2022-10-10T09:09:56;95217.91;;;17.73;63.76
9676;BME280;4876;42.656;23.292;2022-10-10T09:12:32;95220.88;;;17.96;63.99
9676;BME280;4876;42.656;23.292;2022-10-10T09:15:11;95221.34;;;17.73;62.88
9676;BME280;4876;42.656;23.292;2022-10-10T09:17:45;95224.88;;;17.78;63.78
9676;BME280;4876;42.656;23.292;2022-10-10T09:20:36;95224.97;;;17.69;63.35
9676;BME280;4876;42.656;23.292;2022-10-10T09:23:19;95228.19;;;17.74;63.78
9676;BME280;4876;42.656;23.292;2022-10-10T09:25:50;95230.00;;;17.83;63.38
9676;BME280;4876;42.656;23.292;2022-10-10T09:28:26;95223.66;;;17.87;63.05
9676;BME280;4876;42.656;23.292;2022-10-10T09:30:58;95227.53;;;18.02;62.18
9676;BME280;4876;42.656;23.292;2022-10-10T09:33:31;95229.28;;;18.10;61.45
9676;BME280;4876;42.656;23.292;2022-10-10T09:36:00;95232.59;;;18.19;61.78
9676;BME280;4876;42.656;23.292;2022-10-10T09:38:36;95236.81;;;18.20;61.27
9676;BME280;4876;42.656;23.292;2022-10-10T09:41:09;95238.94;;;18.27;61.07
9676;BME280;4876;42.656;23.292;2022-10-10T09:43:39;95235.25;;;18.19;61.32
9676;BME280;4876;42.656;23.292;2022-10-10T09:46:07;95232.38;;;18.24;60.91
9676;BME280;4876;42.656;23.292;2022-10-10T09:48:37;95211.63;;;18.18;61.21
9676;BME280;4876;42.656;23.292;2022-10-10T09:51:05;95228.84;;;18.20;60.57
9676;BME280;4876;42.656;23.292;2022-10-10T09:53:33;95231.25;;;18.25;61.09
9676;BME280;4876;42.656;23.292;2022-10-10T09:56:00;95235.72;;;18.21;60.70
9676;BME280;4876;42.656;23.292;2022-10-10T09:58:32;95228.84;;;18.20;60.78
9676;BME280;4876;42.656;23.292;2022-10-10T10:01:11;95230.22;;;18.42;61.13
9676;BME280;4876;42.656;23.292;2022-10-10T10:03:40;95226.09;;;18.57;60.67
9676;BME280;4876;42.656;23.292;2022-10-10T10:06:14;95216.28;;;18.61;59.64
9676;BME280;4876;42.656;23.292;2022-10-10T10:08:41;95114.16;;;18.01;59.82
9676;BME280;4876;42.656;23.292;2022-10-10T10:11:24;95197.53;;;18.70;59.92
9676;BME280;4876;42.656;23.292;2022-10-10T10:13:54;95209.75;;;18.87;59.67
9676;BME280;4876;42.656;23.292;2022-10-10T10:16:30;95209.34;;;18.85;59.73
9676;BME280;4876;42.656;23.292;2022-10-10T10:18:59;95207.28;;;18.94;59.94
9676;BME280;4876;42.656;23.292;2022-10-10T10:21:27;95210.81;;;18.98;59.13
9676;BME280;4876;42.656;23.292;2022-10-10T10:23:56;95208.78;;;19.07;59.37
9676;BME280;4876;42.656;23.292;2022-10-10T10:26:28;95196.84;;;19.01;58.54
9676;BME280;4876;42.656;23.292;2022-10-10T10:29:02;95194.59;;;19.03;57.46
9676;BME280;4876;42.656;23.292;2022-10-10T10:31:51;95203.84;;;18.93;57.68
9676;BME280;4876;42.656;23.292;2022-10-10T10:34:44;95205.06;;;18.96;58.31
9676;BME280;4876;42.656;23.292;2022-10-10T10:37:19;95202.25;;;19.04;58.37
9676;BME280;4876;42.656;23.292;2022-10-10T10:40:08;95195.25;;;19.00;57.77
9676;BME280;4876;42.656;23.292;2022-10-10T10:42:49;95194.84;;;18.98;58.21
9676;BME280;4876;42.656;23.292;2022-10-10T10:45:27;95193.22;;;19.09;58.19
9676;BME280;4876;42.656;23.292;2022-10-10T10:48:03;95191.84;;;19.15;57.94
9676;BME280;4876;42.656;23.292;2022-10-10T10:50:41;95192.78;;;19.07;57.50
9676;BME280;4876;42.656;23.292;2022-10-10T10:53:17;95194.47;;;18.99;58.00
9676;BME280;4876;42.656;23.292;2022-10-10T10:55:58;95198.78;;;19.04;57.90
9676;BME280;4876;42.656;23.292;2022-10-10T10:58:52;95185.19;;;18.93;58.66
9676;BME280;4876;42.656;23.292;2022-10-10T11:01:32;95188.19;;;18.92;58.04
9676;BME280;4876;42.656;23.292;2022-10-10T11:04:03;95177.53;;;18.92;58.62
9676;BME280;4876;42.656;23.292;2022-10-10T11:06:46;95130.13;;;18.69;58.75
9676;BME280;4876;42.656;23.292;2022-10-10T11:09:19;95163.19;;;18.96;58.63
9676;BME280;4876;42.656;23.292;2022-10-10T11:12:03;95156.31;;;18.95;58.93
9676;BME280;4876;42.656;23.292;2022-10-10T11:14:46;95165.50;;;18.98;59.02
9676;BME280;4876;42.656;23.292;2022-10-10T11:17:20;95162.41;;;18.96;58.64
9676;BME280;4876;42.656;23.292;2022-10-10T11:19:52;95157.75;;;18.93;58.62
9676;BME280;4876;42.656;23.292;2022-10-10T11:22:30;95157.34;;;18.91;58.42
9676;BME280;4876;42.656;23.292;2022-10-10T11:25:02;95160.41;;;18.93;58.12
9676;BME280;4876;42.656;23.292;2022-10-10T11:27:39;95162.31;;;18.92;58.32
9676;BME280;4876;42.656;23.292;2022-10-10T11:30:17;95152.59;;;18.84;58.28
9676;BME280;4876;42.656;23.292;2022-10-10T11:32:50;95152.34;;;18.89;58.71
9676;BME280;4876;42.656;23.292;2022-10-10T11:35:34;95127.56;;;18.73;58.35
9676;BME280;4876;42.656;23.292;2022-10-10T11:38:13;95139.09;;;18.77;58.03
9676;BME280;4876;42.656;23.292;2022-10-10T11:40:53;95121.34;;;18.69;58.52
9676;BME280;4876;42.656;23.292;2022-10-10T11:43:38;95126.09;;;18.75;58.20
9676;BME280;4876;42.656;23.292;2022-10-10T11:46:22;95131.63;;;18.82;58.55
9676;BME280;4876;42.656;23.292;2022-10-10T11:48:56;95127.25;;;18.90;58.51
9676;BME280;4876;42.656;23.292;2022-10-10T11:51:42;95120.88;;;18.79;58.61
9676;BME280;4876;42.656;23.292;2022-10-10T11:54:23;95120.97;;;18.82;58.44
9676;BME280;4876;42.656;23.292;2022-10-10T11:56:57;95114.22;;;18.73;58.03
9676;BME280;4876;42.656;23.292;2022-10-10T11:59:36;95110.38;;;18.86;58.68
9676;BME280;4876;42.656;23.292;2022-10-10T12:02:15;95105.75;;;18.83;59.00
9676;BME280;4876;42.656;23.292;2022-10-10T12:04:43;95102.63;;;18.81;58.43
9676;BME280;4876;42.656;23.292;2022-10-10T12:07:14;95104.09;;;18.78;58.93
9676;BME280;4876;42.656;23.292;2022-10-10T12:09:49;95112.34;;;18.73;58.56
9676;BME280;4876;42.656;23.292;2022-10-10T12:12:26;95102.81;;;18.72;59.12
9676;BME280;4876;42.656;23.292;2022-10-10T12:14:57;95098.13;;;18.69;58.65
9676;BME280;4876;42.656;23.292;2022-10-10T12:17:40;95093.63;;;18.86;59.12
9676;BME280;4876;42.656;23.292;2022-10-10T12:20:09;95083.38;;;19.03;58.46
9676;BME280;4876;42.656;23.292;2022-10-10T12:22:37;95087.44;;;19.13;57.90
9676;BME280;4876;42.656;23.292;2022-10-10T12:25:20;95082.00;;;19.09;57.38
9676;BME280;4876;42.656;23.292;2022-10-10T12:28:02;95078.47;;;19.05;57.17
9676;BME280;4876;42.656;23.292;2022-10-10T12:30:29;95077.88;;;19.12;57.24
9676;BME280;4876;42.656;23.292;2022-10-10T12:32:56;95080.72;;;19.19;57.39
9676;BME280;4876;42.656;23.292;2022-10-10T12:38:21;95068.38;;;19.46;57.03
9676;BME280;4876;42.656;23.292;2022-10-10T12:41:12;95073.25;;;19.60;56.00
9676;BME280;4876;42.656;23.292;2022-10-10T12:43:46;95081.97;;;19.41;56.18
9676;BME280;4876;42.656;23.292;2022-10-10T12:46:20;95073.28;;;19.28;56.33
9676;BME280;4876;42.656;23.292;2022-10-10T12:48:57;95064.28;;;19.17;56.45
9676;BME280;4876;42.656;23.292;2022-10-10T12:51:25;95065.56;;;19.23;56.36
9676;BME280;4876;42.656;23.292;2022-10-10T12:53:55;95082.47;;;19.31;56.72
9676;BME280;4876;42.656;23.292;2022-10-10T12:56:37;95082.25;;;19.20;56.03
9676;BME280;4876;42.656;23.292;2022-10-10T12:59:05;95083.97;;;19.13;56.49
9676;BME280;4876;42.656;23.292;2022-10-10T13:01:45;95077.88;;;18.96;56.99
9676;BME280;4876;42.656;23.292;2022-10-10T13:04:15;95069.53;;;18.98;57.00
9676;BME280;4876;42.656;23.292;2022-10-10T13:06:44;95023.28;;;18.74;56.60
9676;BME280;4876;42.656;23.292;2022-10-10T13:09:16;95073.31;;;18.97;56.67
9676;BME280;4876;42.656;23.292;2022-10-10T13:11:57;95076.56;;;19.06;57.25
9676;BME280;4876;42.656;23.292;2022-10-10T13:14:26;95052.50;;;19.02;57.72
9676;BME280;4876;42.656;23.292;2022-10-10T13:16:53;95071.84;;;19.15;56.85
9676;BME280;4876;42.656;23.292;2022-10-10T13:19:21;95058.78;;;19.10;56.30
9676;BME280;4876;42.656;23.292;2022-10-10T13:21:50;95066.69;;;19.06;56.57
9676;BME280;4876;42.656;23.292;2022-10-10T13:24:19;95062.72;;;19.00;56.60
9676;BME280;4876;42.656;23.292;2022-10-10T13:26:51;95069.69;;;19.05;56.22
9676;BME280;4876;42.656;23.292;2022-10-10T13:29:23;95068.41;;;19.15;56.68
9676;BME280;4876;42.656;23.292;2022-10-10T13:31:53;95062.94;;;19.07;56.92